Portada
METAR-TAF:

METAR-TAF

Aeropuertos :

Aeropuerto Internacional de Sunan

Pionyang, Corea del Norte

latitud: 39-02N, longitud: 125-47E, altitud: 36 m

METAR: falta

Hora: 03:11 (18:41 UTC)

Pronóstico

El informe se hizo hace 15 horas y 11 minutos, a las 03:30 UTC
Pronóstico válido del 16 a las 06 UTC al 17 a las 06 UTC
Viento 6 kt del oeste
Visibilidad 10 km o más
sin nubes por debajo de 1500 m y sin presencia de cumulonimbus.

TAF: ZKPY 160330Z 1606/1706 26003MPS CAVOK TXM03/1606Z TNM10/1622Z

Observaciones y pronósticos meteorológicos de más de 4000 aeropuertos (mensajes METAR y TAF).

Los puntos amarillos y rojos representan las estaciones disponibles.

Ponga el ratón en el punto deseado para ver el nombre de la estación.

Haga clic para ver las observaciones y los pronósticos meteorológicos.

Para cambiar el mapa : haga clic en los botones verdes con una cruz de color negro para hacer un zoom, en el botón verde con un guión para alejar o en las flechas verdes para mapas adyacentes.


METAR-TAF: